小松飛行場の過去48時間の天気

小松飛行場 (Kanazawa/Komatsu)

現在時刻: 1/23 14:51 JST (1/23 05:51 UTC) 以下の時間は現地時間です。

過去48時間のMETAR気象情報
時間 風向 風速(m/s) 視程 気温(℃) 湿度(%) 気圧(hPa) 天気現象
23 14:00 西 13 10km以上 4 70 1009 弱いしゅうあられ 弱いしゅう雨
23 13:00 西 18 10km以上 6 52 1007 弱いしゅう雨
23 12:00 西 14 10km以上 7 61 1007 弱いしゅう雨
23 11:00 西南西 15 10km以上 8 46 1007
23 10:00 西南西 15 10km以上 8 53 1007
23 09:00 南南西 11 10km以上 5 81 1007
23 08:00 南南西 10 10km以上 4 87 1006 弱い雷雨
23 07:00 南南西 8 10km以上 4 81 1006 弱いしゅう雨
23 06:00 南西 4 10km以上 5 70 1006 弱いしゅう雨
23 05:00 4 10km以上 4 81 1005 弱いしゅう雨
23 04:00 6 10km以上 4 81 1006
23 03:00 南南西 5 10km以上 3 87 1007 弱いしゅう雨
23 02:00 南南西 4 10km以上 2 93 1008
23 01:00 3 10km以上 2 87 1008
23 00:00 2 10km以上 1 93 1009
22 23:00 3 10km以上 1 100 1009
22 22:00 2 10km以上 1 93 1010
22 21:00 南南西 3 10km以上 1 93 1010
22 20:00 南南西 2 10km以上 0 100 1011 弱い雨 弱い雪
22 19:00 1 10km以上 0 100 1011 弱い雨 弱い雪
22 18:00 南南東 2 5,000m 0 100 1011 弱い雪 弱い雨
22 17:00 南東 2 1,500m 0 100 1011 弱い雪
22 16:00 1 1,800m 0 100 1012 弱い雪
22 15:00 2 5,000m 1 93 1012 弱い雪 弱い雨
22 14:00 西北西 1 10km以上 3 75 1012 弱い雨
22 13:00 南東 2 10km以上 3 75 1013
22 12:00 東南東 3 10km以上 3 70 1014
22 11:00 不定 1 10km以上 3 75 1016
22 10:00 東南東 2 10km以上 2 81 1017
22 09:00 北北東 2 10km以上 1 86 1018
22 08:00 3 10km以上 1 86 1019
22 07:00 東北東 2 10km以上 0 93 1020
22 06:00 1 10km以上 0 93 1020
22 05:00 東南東 2 10km以上 0 93 1020
RJNK 230500Z 27026KT 9999 -SHGSRA FEW006 SCT008 BKN020CB 04/M01 Q1009 RERASN
RJNK 230400Z 26035G48KT 9999 -SHRA FEW006 BKN020 BKN030 06/M03 Q1007
RJNK 230300Z 26027G37KT 9999 -SHRA FEW006 BKN020 BKN030 07/00 Q1007
RJNK 230200Z 25030G41KT 9999 FEW006 SCT020 08/M03 Q1007
RJNK 230100Z 25029G40KT 9999 FEW006 SCT008 BKN020 08/M01 Q1007
RJNK 230000Z 21022G34KT 9999 FEW006 SCT008 BKN020 05/02 Q1007 RETS
RJNK 222300Z 21020G32KT 9999 -TSRA FEW008 BKN020 FEW020CB BKN030 04/02 Q1006
RJNK 222200Z 21015KT 9999 -SHRA FEW008 BKN020 BKN030 04/01 Q1006
RJNK 222100Z 22007KT 9999 -SHRA FEW008 SCT020 BKN030 05/M00 Q1006
RJNK 222000Z 19008KT 9999 -SHRA FEW008 SCT020 BKN030 04/01 Q1005
RJNK 221900Z 19011KT 9999 FEW008 SCT020 FEW020CB 04/01 Q1006
RJNK 221800Z 21009KT 9999 -SHRA FEW008 SCT020 FEW020CB BKN030 03/01 Q1007
RJNK 221700Z 20007KT 9999 FEW008 FEW020CB BKN030 02/01 Q1008
RJNK 221600Z 18005KT 9999 FEW008 BKN030 02/00 Q1008
RJNK 221500Z 18004KT 9999 FEW008 SCT020 BKN030 01/00 Q1009
RJNK 221400Z 17005KT 9999 FEW008 SCT020 BKN030 01/01 Q1009
RJNK 221300Z 19004KT 9999 FEW008 SCT020 BKN030 01/00 Q1010
RJNK 221200Z 21005KT 150V210 9999 FEW008 SCT020 BKN030 01/00 Q1010
RJNK 221100Z 21003KT 160V240 9999 -RASN FEW008 SCT020 BKN030 00/00 Q1011
RJNK 221000Z 18002KT 9999 -RASN FEW008 SCT020 BKN030 00/00 Q1011
RJNK 220900Z 15004KT 5000 -SNRA FEW002 SCT004 BKN008 00/M00 Q1011
RJNK 220800Z 14003KT 1500 R06/P1800N -SN SCT003 BKN006 BKN008 00/M00 Q1011
RJNK 220700Z 08002KT 1800 -SN SCT004 BKN006 BKN008 00/M00 Q1012
RJNK 220600Z 08003KT 050V110 5000 -SNRA BKN010 BKN030 OVC040 01/M00 Q1012
RJNK 220500Z 29002KT 9999 -RA FEW030 SCT040 BKN060 03/M01 Q1012
RJNK 220400Z 13004KT 9999 FEW030 BKN060 OVC080 03/M01 Q1013
RJNK 220300Z 12005KT 080V140 9999 FEW030 SCT060 BKN080 03/M02 Q1014
RJNK 220200Z VRB02KT 9999 FEW030 SCT050 BKN090 03/M01 Q1016
RJNK 220100Z 11003KT 070V160 9999 FEW030 SCT050 BKN090 02/M01 Q1017
RJNK 220000Z 03004KT 9999 FEW030 BKN050 BKN090 01/M01 Q1018
RJNK 212300Z 08005KT 9999 FEW030 BKN090 BKN120 01/M01 Q1019
RJNK 212200Z 07003KT 040V120 9999 FEW030 SCT090 BKN120 00/M01 Q1020
RJNK 212100Z 08002KT 9999 FEW040 SCT120 BKN180 M00/M01 Q1020
RJNK 212000Z 12003KT 9999 FEW040 BKN180 00/M01 Q1020